Time;durP1;ratioP1;P1;durP2;ratioP2;P2;SDS_P1;SDS_P2;PMS_P1;PMS_P2;Temp;Humidity;BMP_temperature;BMP_pressure;BME280_temperature;BME280_humidity;BME280_pressure;Samples;Min_cycle;Max_cycle;Signal;HPM_P1;HPM_P2
2022/09/30 00:02:38;;;;;;;9.85;5.05;;;;;;;6.29;100.00;100187.22;6001493;28;20031;-65
2022/09/30 00:05:33;;;;;;;12.57;4.97;;;;;;;6.47;100.00;100181.19;6001407;28;20502;-65
2022/09/30 00:08:29;;;;;;;8.70;4.97;;;;;;;6.43;100.00;100206.13;6001735;28;20101;-64
2022/09/30 00:11:30;;;;;;;10.30;5.38;;;;;;;6.43;100.00;100182.44;6000680;28;20377;-65
2022/09/30 00:14:25;;;;;;;10.45;5.00;;;;;;;6.46;100.00;100210.31;6003514;28;20039;-64
2022/09/30 00:17:20;;;;;;;8.00;4.70;;;;;;;6.42;100.00;100206.25;6000840;28;20039;-65
2022/09/30 00:20:18;;;;;;;10.30;5.23;;;;;;;6.49;100.00;100195.06;6000407;28;21071;-65
2022/09/30 00:23:13;;;;;;;9.02;4.90;;;;;;;6.48;100.00;100209.19;6001395;28;20059;-65
2022/09/30 00:26:19;;;;;;;8.80;4.90;;;;;;;6.50;100.00;100201.16;6001064;28;20043;-65
2022/09/30 00:29:15;;;;;;;7.13;4.22;;;;;;;6.60;100.00;100200.22;6001136;28;20030;-65
2022/09/30 00:32:10;;;;;;;10.17;5.57;;;;;;;6.80;100.00;100201.13;6000677;28;20118;-65
2022/09/30 00:35:06;;;;;;;8.60;5.03;;;;;;;6.84;100.00;100207.81;6000213;28;20035;-66
2022/09/30 00:38:01;;;;;;;8.00;4.75;;;;;;;6.64;100.00;100200.78;6010345;28;20023;-65
2022/09/30 00:40:58;;;;;;;8.63;5.00;;;;;;;6.52;100.00;100196.59;6000092;28;20042;-65
2022/09/30 00:43:54;;;;;;;9.45;5.10;;;;;;;6.58;100.00;100211.84;5999691;28;20066;-65
2022/09/30 00:46:49;;;;;;;9.55;4.70;;;;;;;6.70;100.00;100216.06;6000654;28;20576;-65
2022/09/30 00:49:44;;;;;;;7.47;4.00;;;;;;;6.40;100.00;100208.19;6000266;28;20125;-65
2022/09/30 00:52:41;;;;;;;8.77;4.50;;;;;;;6.46;100.00;100213.78;6000126;28;20041;-65
2022/09/30 00:55:45;;;;;;;9.73;4.53;;;;;;;6.38;100.00;100197.81;5998860;28;20101;-65
2022/09/30 00:58:48;;;;;;;8.52;4.53;;;;;;;6.33;100.00;100218.41;5998944;28;20034;-65
2022/09/30 01:01:43;;;;;;;9.45;4.70;;;;;;;6.33;100.00;100214.97;5998195;28;20501;-65
2022/09/30 01:04:40;;;;;;;9.10;5.05;;;;;;;6.56;100.00;100205.91;5999732;28;20113;-65
2022/09/30 01:07:36;;;;;;;8.57;4.68;;;;;;;6.40;100.00;100209.03;5999721;28;20609;-65
2022/09/30 01:10:31;;;;;;;8.48;4.40;;;;;;;6.25;100.00;100230.56;6014133;28;20034;-67
2022/09/30 01:13:28;;;;;;;10.85;5.20;;;;;;;6.50;100.00;100216.94;6010167;28;20113;-65
2022/09/30 01:16:43;;;;;;;9.00;4.82;;;;;;;6.50;100.00;100227.50;6007369;28;20630;-65
2022/09/30 01:19:49;;;;;;;13.07;6.25;;;;;;;6.06;100.00;100228.63;5999056;28;20035;-65
2022/09/30 01:23:14;;;;;;;10.13;5.13;;;;;;;6.14;100.00;100228.84;5998915;28;20042;-65
2022/09/30 01:26:37;;;;;;;9.63;4.85;;;;;;;6.43;100.00;100221.94;5998154;28;20027;-65
2022/09/30 01:30:00;;;;;;;8.63;4.70;;;;;;;6.25;100.00;100226.13;5999330;28;20431;-65
2022/09/30 01:33:24;;;;;;;10.38;5.22;;;;;;;6.20;100.00;100212.53;5998690;28;20133;-65
2022/09/30 01:36:43;;;;;;;10.93;5.20;;;;;;;6.14;100.00;100210.44;5991238;28;20066;-65
2022/09/30 01:40:04;;;;;;;10.40;5.55;;;;;;;6.04;100.00;100233.19;5999229;28;20030;-66
2022/09/30 01:43:13;;;;;;;8.15;4.65;;;;;;;5.91;100.00;100236.03;5999369;28;20038;-65
2022/09/30 01:46:43;;;;;;;10.82;5.45;;;;;;;5.75;100.00;100222.47;5999526;28;20046;-65
2022/09/30 01:49:48;;;;;;;11.70;5.63;;;;;;;5.89;100.00;100219.56;5991186;28;20043;-65
2022/09/30 01:52:52;;;;;;;10.40;5.78;;;;;;;5.66;100.00;100219.75;5992676;28;20086;-65
2022/09/30 01:56:01;;;;;;;11.95;5.95;;;;;;;5.52;100.00;100238.47;5991497;28;20089;-65
2022/09/30 01:59:01;;;;;;;10.80;5.28;;;;;;;5.57;100.00;100231.84;5997820;28;20118;-65
2022/09/30 02:01:57;;;;;;;11.60;5.57;;;;;;;5.47;100.00;100244.09;5997337;28;20043;-65
2022/09/30 02:05:05;;;;;;;11.83;6.87;;;;;;;5.27;100.00;100226.50;5998504;28;20042;-65
2022/09/30 02:08:04;;;;;;;13.02;6.47;;;;;;;5.29;100.00;100235.09;5999097;28;20041;-65
2022/09/30 02:11:07;;;;;;;12.40;6.55;;;;;;;5.20;100.00;100230.56;6013136;28;20385;-65
2022/09/30 02:14:08;;;;;;;15.43;6.95;;;;;;;5.31;100.00;100244.50;5997709;28;20110;-65
2022/09/30 02:17:05;;;;;;;;;;;;;;;5.35;100.00;100242.47;5997924;28;20050;-65
2022/09/30 02:20:07;;;;;;;12.23;6.90;;;;;;;5.29;100.00;100240.34;6013584;28;19914;-65
2022/09/30 02:23:24;;;;;;;14.10;6.80;;;;;;;5.31;100.00;100243.69;5999000;28;20110;-65
2022/09/30 02:26:25;;;;;;;18.70;8.15;;;;;;;5.31;100.00;100246.31;6013579;28;20038;-65
2022/09/30 02:29:26;;;;;;;14.57;7.40;;;;;;;5.30;100.00;100228.84;5997366;28;20096;-65
2022/09/30 02:32:26;;;;;;;14.48;6.43;;;;;;;5.37;100.00;100233.50;5998768;28;20030;-65
2022/09/30 02:35:24;;;;;;;13.13;6.00;;;;;;;5.70;100.00;100239.59;5997120;28;20113;-65
2022/09/30 02:38:27;;;;;;;12.25;6.57;;;;;;;5.65;100.00;100221.56;5998365;28;20434;-65
2022/09/30 02:41:25;;;;;;;12.88;6.50;;;;;;;5.74;100.00;100244.47;5998293;28;20034;-65
2022/09/30 02:44:21;;;;;;;12.77;6.22;;;;;;;5.65;100.00;100231.25;5998403;28;20077;-65
2022/09/30 02:47:26;;;;;;;12.60;6.35;;;;;;;5.42;100.00;100235.75;5997166;28;20039;-65
2022/09/30 02:50:38;;;;;;;14.20;5.97;;;;;;;5.77;100.00;100251.25;5997472;28;20385;-65
2022/09/30 02:53:46;;;;;;;12.88;6.47;;;;;;;5.98;100.00;100245.06;6026100;28;20050;-65
2022/09/30 02:56:44;;;;;;;13.13;6.30;;;;;;;5.83;100.00;100254.22;6003037;28;20105;-65
2022/09/30 02:59:40;;;;;;;10.30;5.70;;;;;;;5.75;100.00;100238.25;6003366;28;20558;-65
2022/09/30 03:02:36;;;;;;;12.02;6.28;;;;;;;5.80;100.00;100243.13;6002542;28;20031;-65
2022/09/30 03:05:31;;;;;;;11.17;5.87;;;;;;;5.72;100.00;100249.03;6001705;28;20051;-65
2022/09/30 03:08:26;;;;;;;10.63;5.57;;;;;;;5.99;100.00;100252.03;6001665;28;20278;-66
2022/09/30 03:11:23;;;;;;;11.77;6.17;;;;;;;5.69;100.00;100236.13;6002140;28;20360;-65
2022/09/30 03:14:31;;;;;;;11.27;6.13;;;;;;;5.88;100.00;100254.72;6001437;28;20045;-66
2022/09/30 03:17:43;;;;;;;11.43;5.50;;;;;;;5.74;100.00;100262.03;6002497;28;20035;-66
2022/09/30 03:20:57;;;;;;;10.70;5.97;;;;;;;5.64;100.00;100269.84;6005136;28;20068;-66
2022/09/30 03:24:20;;;;;;;10.25;5.68;;;;;;;5.77;100.00;100272.31;6002263;28;20038;-65
2022/09/30 03:27:15;;;;;;;12.02;6.22;;;;;;;5.74;100.00;100273.41;6002108;28;20031;-66
2022/09/30 03:30:16;;;;;;;10.47;5.37;;;;;;;5.70;100.00;100269.38;6001563;28;20178;-65
2022/09/30 03:33:14;;;;;;;10.80;6.03;;;;;;;5.56;100.00;100274.91;6002173;28;20393;-66
2022/09/30 03:36:24;;;;;;;12.70;5.70;;;;;;;5.70;100.00;100285.16;6006096;28;20037;-65
2022/09/30 03:39:36;;;;;;;11.15;6.03;;;;;;;5.31;100.00;100275.22;6000977;28;20105;-66
2022/09/30 03:42:37;;;;;;;15.98;6.65;;;;;;;5.26;100.00;100280.00;6001244;28;20356;-65
2022/09/30 03:45:37;;;;;;;13.25;6.15;;;;;;;5.19;100.00;100286.72;6001105;28;20074;-66
2022/09/30 03:48:33;;;;;;;13.75;7.05;;;;;;;5.25;100.00;100286.22;6009670;28;20144;-66
2022/09/30 03:51:29;;;;;;;11.77;6.32;;;;;;;5.37;100.00;100290.50;6002648;28;20038;-66
2022/09/30 03:54:24;;;;;;;12.50;7.07;;;;;;;5.45;100.00;100272.31;6016848;28;20446;-66
2022/09/30 03:57:20;;;;;;;15.30;7.30;;;;;;;5.66;100.00;100285.50;6000196;28;20039;-65
2022/09/30 04:00:15;;;;;;;12.73;6.90;;;;;;;5.39;100.00;100283.31;6001469;28;20042;-66
2022/09/30 04:03:11;;;;;;;12.43;6.82;;;;;;;5.19;100.00;100300.69;6001181;28;20029;-66
2022/09/30 04:06:09;;;;;;;14.20;6.78;;;;;;;5.04;100.00;100288.78;6001206;28;20042;-66
2022/09/30 04:09:04;;;;;;;13.00;7.13;;;;;;;5.16;100.00;100290.44;6006334;28;20093;-66
2022/09/30 04:12:00;;;;;;;13.33;7.30;;;;;;;5.20;100.00;100306.78;6007127;28;20470;-65
2022/09/30 04:14:55;;;;;;;11.18;6.70;;;;;;;5.36;100.00;100304.59;6001309;28;20286;-66
2022/09/30 04:17:50;;;;;;;13.73;7.00;;;;;;;5.32;100.00;100293.50;6001430;28;20105;-66
2022/09/30 04:20:45;;;;;;;15.30;7.33;;;;;;;5.40;100.00;100296.34;6000779;28;20093;-66
2022/09/30 04:23:41;;;;;;;13.33;6.80;;;;;;;5.35;100.00;100305.56;6001319;28;20030;-66
2022/09/30 04:26:37;;;;;;;12.95;6.25;;;;;;;5.25;100.00;100315.13;6000969;28;20031;-65
2022/09/30 04:29:32;;;;;;;13.03;6.10;;;;;;;5.02;100.00;100318.75;6000934;28;20203;-65
2022/09/30 04:32:27;;;;;;;11.83;6.40;;;;;;;5.08;100.00;100302.50;6000407;28;20458;-65
2022/09/30 04:35:23;;;;;;;12.23;6.63;;;;;;;5.36;100.00;100312.47;6000936;28;20428;-65
2022/09/30 04:38:19;;;;;;;15.38;6.78;;;;;;;5.45;100.00;100306.50;6001363;28;20281;-65
2022/09/30 04:41:16;;;;;;;9.75;6.05;;;;;;;5.18;100.00;100313.97;5999597;28;20044;-65
2022/09/30 04:44:12;;;;;;;11.48;6.07;;;;;;;5.28;100.00;100318.34;6000610;28;20027;-65
2022/09/30 04:47:08;;;;;;;13.18;6.47;;;;;;;5.31;100.00;100330.41;6000495;28;20035;-65
2022/09/30 04:50:04;;;;;;;13.30;5.68;;;;;;;5.52;100.00;100341.03;5999921;28;20534;-65
2022/09/30 04:52:59;;;;;;;9.45;5.55;;;;;;;5.27;100.00;100329.81;5999880;28;20029;-66
2022/09/30 04:55:59;;;;;;;10.33;5.37;;;;;;;5.22;100.00;100347.75;6001034;28;20046;-66
2022/09/30 04:58:54;;;;;;;12.82;6.78;;;;;;;5.27;100.00;100329.81;6000602;28;20042;-65
2022/09/30 05:01:49;;;;;;;12.57;6.07;;;;;;;5.57;100.00;100355.44;5999528;28;20050;-65
2022/09/30 05:04:45;;;;;;;12.10;6.33;;;;;;;5.19;100.00;100345.34;5999762;28;20046;-65
2022/09/30 05:07:40;;;;;;;11.47;5.63;;;;;;;5.21;100.00;100348.72;5999644;28;20437;-66
2022/09/30 05:10:36;;;;;;;10.80;6.13;;;;;;;5.39;100.00;100351.69;5999494;28;20033;-66
2022/09/30 05:13:33;;;;;;;15.25;6.95;;;;;;;5.26;100.00;100361.50;5999594;28;20045;-66
2022/09/30 05:16:29;;;;;;;12.25;6.65;;;;;;;5.43;100.00;100368.91;5999046;28;20503;-66
2022/09/30 05:19:24;;;;;;;10.83;5.77;;;;;;;5.14;100.00;100359.81;5999570;28;20031;-66
2022/09/30 05:22:22;;;;;;;14.43;7.65;;;;;;;5.28;100.00;100362.19;5999251;28;20061;-66
2022/09/30 05:25:18;;;;;;;15.07;7.38;;;;;;;5.48;100.00;100371.16;6000054;28;20119;-66
2022/09/30 05:28:13;;;;;;;12.18;6.68;;;;;;;5.28;100.00;100364.84;5999719;28;20058;-65
2022/09/30 05:31:09;;;;;;;14.00;6.75;;;;;;;5.41;100.00;100363.75;5998449;28;20463;-66
2022/09/30 05:34:04;;;;;;;13.10;6.83;;;;;;;5.61;100.00;100371.84;5999281;28;20030;-66
2022/09/30 05:36:59;;;;;;;15.40;7.67;;;;;;;5.54;100.00;100366.25;5999493;28;20369;-66
2022/09/30 05:39:55;;;;;;;16.60;8.07;;;;;;;5.61;100.00;100367.41;5999499;28;20353;-66
2022/09/30 05:42:51;;;;;;;15.30;7.80;;;;;;;5.51;100.00;100379.63;5998975;28;20038;-66
2022/09/30 05:45:55;;;;;;;14.83;7.80;;;;;;;5.47;100.00;100386.09;5998769;28;20074;-66
2022/09/30 05:48:53;;;;;;;16.10;8.13;;;;;;;5.15;100.00;100387.78;5999392;28;20369;-66
2022/09/30 05:51:48;;;;;;;15.00;7.47;;;;;;;5.04;100.00;100390.41;6001320;28;20543;-66
2022/09/30 05:54:43;;;;;;;15.50;7.57;;;;;;;5.07;100.00;100398.06;5999457;28;20035;-66
2022/09/30 05:57:39;;;;;;;15.70;8.47;;;;;;;5.35;100.00;100408.91;5998644;28;20035;-66
2022/09/30 06:00:34;;;;;;;16.60;7.77;;;;;;;5.59;100.00;100407.94;5998595;28;20046;-66
2022/09/30 06:03:29;;;;;;;13.77;7.17;;;;;;;5.98;100.00;100387.19;5998948;28;20383;-65
2022/09/30 06:06:25;;;;;;;16.53;8.70;;;;;;;6.31;100.00;100407.28;5997631;28;20497;-66
2022/09/30 06:09:20;;;;;;;15.27;7.18;;;;;;;6.59;100.00;100419.00;6001707;28;20040;-66
2022/09/30 06:12:15;;;;;;;14.73;7.45;;;;;;;6.80;100.00;100411.09;6007558;28;20537;-66
2022/09/30 06:15:11;;;;;;;11.87;6.80;;;;;;;7.08;100.00;100416.53;6003854;28;20042;-66
2022/09/30 06:18:07;;;;;;;12.87;7.27;;;;;;;6.73;100.00;100413.41;5998146;28;20065;-66
2022/09/30 06:21:03;;;;;;;14.35;7.20;;;;;;;6.51;100.00;100427.56;5997608;28;20282;-66
2022/09/30 06:23:59;;;;;;;17.23;7.53;;;;;;;6.56;100.00;100427.16;6000936;28;20030;-66
2022/09/30 06:26:54;;;;;;;16.13;7.57;;;;;;;6.83;100.00;100432.75;5998105;28;20042;-65
2022/09/30 06:29:50;;;;;;;16.53;8.00;;;;;;;6.93;100.00;100431.00;5998102;28;20046;-66
2022/09/30 06:32:46;;;;;;;18.15;8.35;;;;;;;6.89;100.00;100437.50;6006914;28;20073;-66
2022/09/30 06:35:41;;;;;;;16.45;7.95;;;;;;;7.28;100.00;100435.09;5997993;28;20039;-66
2022/09/30 06:38:38;;;;;;;20.20;7.90;;;;;;;7.52;100.00;100443.53;5998106;28;20074;-66
2022/09/30 06:41:36;;;;;;;15.80;8.10;;;;;;;7.52;98.84;100451.44;5997679;28;20113;-66
2022/09/30 06:44:32;;;;;;;14.00;7.57;;;;;;;7.72;98.87;100426.75;5998139;28;20034;-66
2022/09/30 06:47:27;;;;;;;15.15;7.68;;;;;;;8.25;97.38;100440.50;6000766;28;20706;-66
2022/09/30 06:50:23;;;;;;;13.00;6.40;;;;;;;8.47;96.07;100450.00;6001117;28;20890;-66
2022/09/30 06:53:18;;;;;;;11.83;6.33;;;;;;;8.61;94.76;100436.34;5998805;28;20278;-66
2022/09/30 06:56:17;;;;;;;11.73;5.93;;;;;;;8.81;94.58;100445.91;5998056;28;20039;-66
2022/09/30 06:59:15;;;;;;;13.60;6.10;;;;;;;8.61;93.07;100460.16;5997476;28;20074;-66
2022/09/30 07:02:11;;;;;;;15.52;7.00;;;;;;;8.62;93.23;100444.13;5996895;28;20049;-66
2022/09/30 07:05:07;;;;;;;16.02;6.07;;;;;;;8.78;92.01;100456.78;5997358;28;20111;-66
2022/09/30 07:08:02;;;;;;;10.30;6.13;;;;;;;8.79;90.69;100455.81;5997876;28;20153;-66
2022/09/30 07:10:58;;;;;;;13.27;7.40;;;;;;;8.89;91.21;100468.03;5996877;28;20049;-66
2022/09/30 07:13:54;;;;;;;10.65;5.95;;;;;;;9.26;91.24;100470.75;5998714;28;20042;-66
2022/09/30 07:16:52;;;;;;;9.88;5.70;;;;;;;9.48;89.84;100465.09;6002070;28;20868;-66
2022/09/30 07:19:50;;;;;;;12.25;5.93;;;;;;;9.57;87.90;100458.94;5998231;28;20516;-66
2022/09/30 07:22:46;;;;;;;10.52;5.65;;;;;;;9.78;87.16;100455.22;5997177;28;20390;-66
2022/09/30 07:25:56;;;;;;;10.65;6.28;;;;;;;9.96;86.79;100459.59;5997774;28;20043;-66
2022/09/30 07:28:51;;;;;;;8.93;5.47;;;;;;;10.42;85.04;100474.50;5995760;28;20030;-66
2022/09/30 07:31:47;;;;;;;10.07;5.75;;;;;;;10.47;82.62;100472.25;5995334;28;20482;-66
2022/09/30 07:34:43;;;;;;;9.83;5.60;;;;;;;10.52;81.91;100462.00;5996059;28;20510;-66
2022/09/30 07:37:38;;;;;;;9.02;5.28;;;;;;;10.69;82.70;100469.13;5996213;28;20078;-66
2022/09/30 07:40:33;;;;;;;10.67;5.63;;;;;;;10.80;82.28;100468.06;5997098;28;20030;-66
2022/09/30 07:43:33;;;;;;;9.63;5.70;;;;;;;11.01;81.81;100473.00;6001345;28;20031;-66
2022/09/30 07:46:32;;;;;;;9.73;5.68;;;;;;;10.89;81.67;100466.31;6001938;28;20623;-66
2022/09/30 07:49:27;;;;;;;10.43;5.93;;;;;;;10.69;81.32;100474.44;6002145;28;20114;-66
2022/09/30 07:52:22;;;;;;;8.93;6.07;;;;;;;11.12;80.68;100470.09;6000910;28;20569;-66
2022/09/30 07:55:18;;;;;;;9.23;5.30;;;;;;;11.52;79.61;100485.47;6014258;28;20038;-66
2022/09/30 07:58:13;;;;;;;9.70;5.00;;;;;;;11.83;78.14;100476.03;6001913;28;20278;-66
2022/09/30 08:01:09;;;;;;;7.53;4.83;;;;;;;12.16;77.81;100482.28;6000743;28;20348;-66
2022/09/30 08:04:06;;;;;;;11.73;5.70;;;;;;;12.17;75.58;100483.97;6001530;28;20513;-66
2022/09/30 08:07:03;;;;;;;10.77;5.22;;;;;;;12.24;76.70;100474.31;6001720;28;20045;-66
2022/09/30 08:09:58;;;;;;;8.75;5.32;;;;;;;12.52;75.26;100494.34;6001477;28;20050;-66
2022/09/30 08:12:54;;;;;;;10.63;5.55;;;;;;;12.57;75.21;100492.03;6001397;28;20034;-66
2022/09/30 08:15:49;;;;;;;9.47;4.90;;;;;;;12.72;74.24;100490.34;6001255;28;20066;-66
2022/09/30 08:18:44;;;;;;;11.03;5.20;;;;;;;12.70;73.60;100497.69;6001307;28;20109;-66
2022/09/30 08:21:40;;;;;;;10.60;4.88;;;;;;;12.66;74.96;100495.53;6000446;28;20047;-66
2022/09/30 08:24:35;;;;;;;9.30;5.73;;;;;;;12.49;74.36;100481.38;6001044;28;20035;-66
2022/09/30 08:27:30;;;;;;;10.30;5.77;;;;;;;12.87;72.77;100485.22;6001150;28;20074;-66
2022/09/30 08:30:25;;;;;;;11.07;5.10;;;;;;;12.83;72.19;100487.38;6000533;28;20394;-65
2022/09/30 08:33:21;;;;;;;8.53;4.87;;;;;;;12.96;72.99;100487.69;6001124;28;20070;-65
2022/09/30 08:36:19;;;;;;;8.93;5.07;;;;;;;13.23;70.96;100493.72;6001048;28;20122;-65
2022/09/30 08:39:14;;;;;;;7.63;4.82;;;;;;;13.52;70.95;100478.84;6000693;28;20038;-65
2022/09/30 08:42:39;;;;;;;8.80;5.43;;;;;;;13.74;68.56;100503.94;6000131;28;20038;-67
2022/09/30 08:45:45;;;;;;;6.93;4.53;;;;;;;13.71;68.81;100491.78;6003142;28;20650;-67
2022/09/30 08:48:50;;;;;;;10.88;5.25;;;;;;;13.69;70.04;100491.13;6000134;28;20086;-66
2022/09/30 08:51:46;;;;;;;10.90;4.97;;;;;;;14.00;70.11;100493.81;6003383;28;20410;-65
2022/09/30 08:54:46;;;;;;;8.15;5.43;;;;;;;14.04;68.37;100499.66;6018497;28;20077;-67
2022/09/30 08:57:43;;;;;;;8.23;4.93;;;;;;;13.61;69.03;100503.63;6000622;28;20026;-67
2022/09/30 09:00:39;;;;;;;9.32;5.45;;;;;;;14.01;67.43;100516.81;5999971;28;20034;-67
2022/09/30 09:03:34;;;;;;;12.57;6.10;;;;;;;14.17;67.06;100519.41;5998537;28;20579;-67
2022/09/30 09:06:38;;;;;;;7.20;4.97;;;;;;;14.41;67.12;100510.47;5999948;28;20027;-67
2022/09/30 09:10:15;;;;;;;8.05;4.90;;;;;;;14.77;66.68;100513.44;6000006;28;20266;-66
2022/09/30 09:13:25;;;;;;;9.85;5.78;;;;;;;14.52;66.04;100514.59;5980239;28;20551;-67
2022/09/30 09:16:44;;;;;;;8.70;5.55;;;;;;;14.69;66.86;100505.47;6000128;28;20043;-66
2022/09/30 09:20:02;;;;;;;8.68;5.45;;;;;;;15.11;65.51;100524.50;5999031;28;20041;-66
2022/09/30 09:23:01;;;;;;;7.82;4.75;;;;;;;15.21;66.06;100527.75;5999898;28;20031;-67
2022/09/30 09:25:57;;;;;;;9.70;4.55;;;;;;;14.94;64.99;100509.63;5998575;28;20039;-66
2022/09/30 09:29:02;;;;;;;8.60;5.20;;;;;;;15.37;63.01;100514.25;6000655;28;20482;-67
2022/09/30 09:31:58;;;;;;;8.27;5.00;;;;;;;15.29;63.28;100516.16;6014088;28;20043;-67
2022/09/30 09:34:59;;;;;;;9.43;5.45;;;;;;;15.39;63.11;100514.06;5999669;28;20097;-66
2022/09/30 09:41:39;;;;;;;9.85;5.20;;;;;;;15.19;64.54;100510.25;5987879;28;20035;-66
2022/09/30 09:44:35;;;;;;;9.43;5.40;;;;;;;15.43;64.07;100515.38;5999767;28;20043;-67
2022/09/30 09:47:31;;;;;;;10.37;5.40;;;;;;;15.35;62.58;100518.13;5999768;28;20058;-67
2022/09/30 09:50:31;;;;;;;8.23;4.90;;;;;;;15.64;63.47;100512.00;5998531;28;20062;-67
2022/09/30 09:53:41;;;;;;;7.43;5.25;;;;;;;15.33;63.91;100514.78;5999094;28;20041;-67
2022/09/30 09:56:36;;;;;;;8.73;4.80;;;;;;;15.61;64.58;100507.03;5997942;28;20410;-66
2022/09/30 09:59:32;;;;;;;7.43;4.10;;;;;;;15.95;61.53;100513.47;5998848;28;20034;-67
2022/09/30 10:02:30;;;;;;;10.70;4.50;;;;;;;16.43;61.85;100509.34;5998294;28;20081;-66
2022/09/30 10:05:31;;;;;;;8.68;4.78;;;;;;;16.31;62.52;100520.72;5998345;28;20045;-66
2022/09/30 10:08:28;;;;;;;7.18;5.20;;;;;;;16.31;58.87;100497.47;5999481;28;20117;-67
2022/09/30 10:11:26;;;;;;;8.00;5.30;;;;;;;16.32;59.59;100504.47;5998467;28;20113;-67
2022/09/30 10:14:21;;;;;;;10.50;5.07;;;;;;;16.31;59.40;100494.78;5998910;28;20043;-67
2022/09/30 10:17:24;;;;;;;7.60;4.83;;;;;;;16.41;59.40;100499.84;5997598;28;20548;-67
2022/09/30 10:20:26;;;;;;;8.48;5.40;;;;;;;16.70;56.27;100515.00;5998078;28;20035;-65
2022/09/30 10:23:31;;;;;;;10.52;4.68;;;;;;;16.42;56.67;100504.16;5998774;28;20656;-66
2022/09/30 10:26:27;;;;;;;10.13;5.07;;;;;;;16.19;58.15;100501.66;5998539;28;20066;-65
2022/09/30 10:29:35;;;;;;;10.20;5.57;;;;;;;15.95;57.92;100510.00;6006850;28;20041;-65
2022/09/30 10:32:31;;;;;;;10.63;6.03;;;;;;;15.75;57.96;100506.19;5997606;28;20035;-67
2022/09/30 10:35:26;;;;;;;10.52;5.10;;;;;;;16.03;57.31;100499.19;5997149;28;20105;-65
2022/09/30 10:38:23;;;;;;;8.83;5.67;;;;;;;16.05;56.97;100491.78;5998587;28;20031;-67
2022/09/30 10:41:25;;;;;;;13.55;6.85;;;;;;;16.04;57.13;100503.50;5996336;28;20277;-65
2022/09/30 10:44:22;;;;;;;9.73;6.05;;;;;;;15.98;58.46;100488.22;5996870;28;20035;-65
2022/09/30 10:47:20;;;;;;;10.45;5.80;;;;;;;16.07;57.54;100492.44;5997798;28;20042;-65
2022/09/30 10:50:19;;;;;;;11.80;6.20;;;;;;;16.12;58.72;100500.72;5997573;28;20030;-65
2022/09/30 10:53:20;;;;;;;9.15;5.95;;;;;;;16.31;57.53;100477.88;5996920;28;20534;-65
2022/09/30 10:56:44;;;;;;;10.48;6.25;;;;;;;16.56;56.06;100495.28;5996811;28;20546;-67
2022/09/30 10:59:40;;;;;;;9.90;5.88;;;;;;;16.66;55.08;100498.47;5998167;28;20505;-67
2022/09/30 11:03:12;;;;;;;9.65;6.07;;;;;;;16.66;56.34;100504.66;5998019;28;20034;-67
2022/09/30 11:06:10;;;;;;;11.48;6.20;;;;;;;16.90;53.56;100495.44;5994789;28;20042;-67
2022/09/30 11:09:13;;;;;;;12.07;5.38;;;;;;;16.94;54.05;100495.88;5996947;28;20038;-66
2022/09/30 11:12:16;;;;;;;9.55;5.47;;;;;;;16.76;52.98;100506.22;5996265;28;20035;-66
2022/09/30 11:15:21;;;;;;;8.50;5.30;;;;;;;16.70;54.89;100499.78;5999350;28;20034;-66
2022/09/30 11:18:22;;;;;;;8.93;4.90;;;;;;;16.94;53.05;100490.50;6017733;28;20117;-66
2022/09/30 11:21:25;;;;;;;7.80;4.53;;;;;;;17.30;52.64;100499.28;6001241;28;20097;-66
2022/09/30 11:24:46;;;;;;;10.35;4.80;;;;;;;17.53;52.37;100505.25;6003019;28;20060;-67
2022/09/30 11:27:54;;;;;;;9.50;6.32;;;;;;;17.50;52.13;100496.75;6001390;28;20054;-67
2022/09/30 11:31:19;;;;;;;9.85;5.07;;;;;;;17.05;50.78;100504.22;6007925;28;20555;-67
2022/09/30 11:34:34;;;;;;;7.38;4.30;;;;;;;16.55;49.20;100489.09;6000930;28;20038;-67
2022/09/30 11:38:08;;;;;;;14.50;5.43;;;;;;;16.75;50.29;100502.69;6002290;28;20090;-67
2022/09/30 11:41:32;;;;;;;7.75;4.25;;;;;;;16.91;50.25;100501.59;5994433;28;20047;-66
2022/09/30 11:44:30;;;;;;;7.40;4.30;;;;;;;17.50;50.84;100494.88;5996471;28;20074;-67
2022/09/30 11:47:48;;;;;;;6.53;4.20;;;;;;;17.21;53.18;100497.75;6016947;28;20534;-67
2022/09/30 11:50:57;;;;;;;8.27;5.60;;;;;;;17.33;50.71;100482.81;6010287;28;20117;-67
2022/09/30 11:54:23;;;;;;;9.80;5.53;;;;;;;17.37;50.93;100499.31;6002852;28;20444;-67
2022/09/30 11:57:27;;;;;;;;;;;;;;;17.23;51.85;100496.53;6002484;28;20031;-66
2022/09/30 12:00:22;;;;;;;9.05;5.28;;;;;;;17.02;51.36;100490.38;5999705;28;19965;-67
2022/09/30 12:03:24;;;;;;;7.13;4.80;;;;;;;16.92;52.37;100500.59;6005202;28;20045;-67
2022/09/30 12:06:41;;;;;;;9.82;5.28;;;;;;;16.58;54.46;100502.13;6013550;28;20069;-66
2022/09/30 12:09:41;;;;;;;9.27;5.55;;;;;;;16.88;53.14;100504.66;5999116;28;20042;-66
2022/09/30 12:12:37;;;;;;;8.45;5.25;;;;;;;16.86;55.17;100488.81;6000425;28;20163;-67
2022/09/30 12:15:33;;;;;;;8.30;5.57;;;;;;;16.86;53.67;100501.38;6001412;28;20074;-66
2022/09/30 12:18:41;;;;;;;9.95;5.82;;;;;;;16.51;54.39;100495.00;5999846;28;20038;-67
2022/09/30 12:21:45;;;;;;;8.65;4.85;;;;;;;16.22;55.49;100493.25;5987530;28;20041;-66
2022/09/30 12:24:44;;;;;;;8.40;5.35;;;;;;;15.55;56.51;100492.53;6000016;28;20478;-66
2022/09/30 12:27:51;;;;;;;7.93;5.15;;;;;;;15.66;58.41;100499.28;5999422;28;20027;-66
2022/09/30 12:30:46;;;;;;;;;;;;;;;16.20;58.25;100497.13;6003290;28;20389;-67
2022/09/30 12:33:54;;;;;;;7.80;4.37;;;;;;;16.55;57.12;100481.06;5999731;28;19929;-66
2022/09/30 12:37:15;;;;;;;12.02;6.68;;;;;;;16.60;53.47;100477.84;5999803;28;20042;-66
2022/09/30 12:40:41;;;;;;;8.77;5.68;;;;;;;16.80;54.35;100478.00;5999790;28;20042;-66
2022/09/30 12:44:04;;;;;;;9.63;5.85;;;;;;;17.06;54.53;100478.25;6000868;28;20066;-66
2022/09/30 12:46:59;;;;;;;7.85;4.97;;;;;;;16.97;54.26;100482.09;5995986;28;20069;-66
2022/09/30 12:49:56;;;;;;;7.63;4.50;;;;;;;16.57;56.91;100484.41;6000885;28;20485;-66
2022/09/30 12:52:53;;;;;;;8.38;5.25;;;;;;;16.32;53.71;100472.38;5999754;28;20450;-66
2022/09/30 12:55:48;;;;;;;13.88;5.25;;;;;;;16.33;55.56;100487.41;6000804;28;20026;-66
2022/09/30 12:58:47;;;;;;;14.13;5.97;;;;;;;16.01;55.24;100485.16;5998788;28;20077;-66
2022/09/30 13:01:42;;;;;;;9.60;5.28;;;;;;;15.72;57.03;100482.50;5998318;28;20045;-66
2022/09/30 13:04:41;;;;;;;9.60;4.60;;;;;;;15.48;57.49;100475.59;5998946;28;20079;-66
2022/09/30 13:08:03;;;;;;;10.20;4.80;;;;;;;15.68;56.04;100486.56;5994927;28;20030;-66
2022/09/30 13:10:59;;;;;;;7.68;5.03;;;;;;;15.62;56.93;100476.63;5999251;28;20034;-66
2022/09/30 13:14:10;;;;;;;9.25;4.90;;;;;;;15.88;55.17;100467.09;5999036;28;20475;-66
2022/09/30 13:17:06;;;;;;;8.48;4.80;;;;;;;16.43;54.20;100476.38;6012528;28;20047;-66
2022/09/30 13:20:01;;;;;;;7.33;4.87;;;;;;;16.63;51.75;100454.16;6000357;28;20498;-67
2022/09/30 13:22:56;;;;;;;7.53;4.53;;;;;;;17.07;51.79;100455.78;5999906;28;20039;-66
2022/09/30 13:25:53;;;;;;;5.87;3.50;;;;;;;17.09;51.29;100461.81;5999734;28;20750;-66
2022/09/30 13:28:54;;;;;;;7.35;4.25;;;;;;;16.93;48.63;100460.22;6003122;28;20286;-66
2022/09/30 13:31:49;;;;;;;5.55;3.45;;;;;;;16.94;48.82;100469.09;5998954;28;20065;-66
2022/09/30 13:34:53;;;;;;;5.83;3.60;;;;;;;16.86;49.82;100453.97;5999883;28;20038;-66
2022/09/30 13:38:11;;;;;;;7.95;3.85;;;;;;;16.85;51.26;100454.19;5998914;28;20034;-67
2022/09/30 13:41:25;;;;;;;5.43;2.67;;;;;;;17.12;50.45;100451.50;5999035;28;20493;-66
2022/09/30 13:44:31;;;;;;;4.78;2.90;;;;;;;17.30;48.16;100436.78;5998327;28;20031;-66
2022/09/30 13:47:31;;;;;;;7.03;3.00;;;;;;;16.96;49.34;100446.44;5999668;28;20042;-66
2022/09/30 13:50:31;;;;;;;5.30;2.72;;;;;;;16.50;51.23;100461.22;5998824;28;20480;-66
2022/09/30 13:53:39;;;;;;;6.25;3.17;;;;;;;16.76;51.11;100450.81;5999419;28;20027;-66
2022/09/30 13:56:36;;;;;;;5.10;3.03;;;;;;;16.95;50.51;100454.69;5998692;28;20042;-66
2022/09/30 13:59:50;;;;;;;4.95;2.63;;;;;;;17.03;50.03;100451.84;5997676;28;20042;-66
2022/09/30 14:03:02;;;;;;;5.38;2.78;;;;;;;16.64;52.26;100453.16;6003672;28;20035;-66